Time;durP1;ratioP1;P1;durP2;ratioP2;P2;SDS_P1;SDS_P2;PMS_P1;PMS_P2;Temp;Humidity;BMP_temperature;BMP_pressure;BME280_temperature;BME280_humidity;BME280_pressure;Samples;Min_cycle;Max_cycle;Signal;HPM_P1;HPM_P2
2022/12/01 00:02:09;;;;;;;28.13;15.73;;;6.60;93.10;;;;;;21007301;28;20235;-78
2022/12/01 00:12:11;;;;;;;29.83;16.10;;;6.70;93.10;;;;;;21006053;28;20214;-79
2022/12/01 00:22:12;;;;;;;25.00;15.67;;;6.60;92.90;;;;;;21005384;28;20295;-81
2022/12/01 00:32:14;;;;;;;25.13;15.00;;;6.60;92.90;;;;;;21004935;28;20255;-80
2022/12/01 00:42:19;;;;;;;25.40;15.37;;;6.60;92.80;;;;;;21003613;28;20631;-80
2022/12/01 00:52:21;;;;;;;28.67;15.87;;;6.60;92.80;;;;;;21003083;28;20669;-77
2022/12/01 01:02:23;;;;;;;27.53;15.40;;;6.70;92.80;;;;;;21002009;28;20295;-79
2022/12/01 01:12:25;;;;;;;25.73;15.07;;;6.60;92.70;;;;;;21001487;28;20217;-79
2022/12/01 01:22:27;;;;;;;25.23;15.30;;;6.60;92.70;;;;;;21000668;28;20234;-80
2022/12/01 01:32:29;;;;;;;24.50;14.73;;;6.60;92.70;;;;;;21000072;28;20212;-79
2022/12/01 01:42:30;;;;;;;25.53;14.40;;;6.60;92.90;;;;;;20998694;28;20250;-79
2022/12/01 01:52:35;;;;;;;22.97;14.17;;;6.50;92.50;;;;;;20997616;28;20205;-78
2022/12/01 02:02:39;;;;;;;24.70;14.40;;;6.60;92.70;;;;;;20997872;28;20272;-79
2022/12/01 02:13:21;;;;;;;24.43;14.63;;;6.60;92.70;;;;;;20998407;28;20210;-80
2022/12/01 02:23:41;;;;;;;22.53;13.10;;;6.50;92.60;;;;;;20996212;28;20237;-79
2022/12/01 02:33:51;;;;;;;21.70;12.87;;;6.50;92.40;;;;;;20996387;28;20209;-78
2022/12/01 02:44:07;;;;;;;21.87;13.20;;;6.50;92.00;;;;;;20995383;28;20247;-78
2022/12/01 02:54:11;;;;;;;19.57;12.00;;;6.40;91.60;;;;;;20995695;28;20210;-78
2022/12/01 03:04:32;;;;;;;21.93;12.47;;;6.40;91.50;;;;;;21004576;28;20245;-78
2022/12/01 03:14:52;;;;;;;18.90;12.00;;;6.40;91.30;;;;;;21015705;28;20726;-77
2022/12/01 03:24:56;;;;;;;19.83;12.50;;;6.40;91.30;;;;;;21009775;28;20271;-77
2022/12/01 03:35:15;;;;;;;19.03;11.67;;;6.30;91.10;;;;;;21046570;28;20200;-80
2022/12/01 03:45:30;;;;;;;21.80;13.13;;;6.20;91.00;;;;;;21009031;28;20253;-79
2022/12/01 03:55:38;;;;;;;23.10;13.33;;;6.10;91.20;;;;;;21007718;28;20205;-79
2022/12/01 04:05:39;;;;;;;21.73;12.70;;;6.00;91.30;;;;;;21006729;28;20632;-78
2022/12/01 04:15:42;;;;;;;24.90;13.90;;;6.10;91.50;;;;;;21006108;28;20201;-78
2022/12/01 04:25:43;;;;;;;20.97;12.23;;;6.10;91.70;;;;;;21005208;28;20237;-78
2022/12/01 04:35:45;;;;;;;20.57;12.37;;;6.20;91.70;;;;;;21003640;28;20207;-78
2022/12/01 04:45:47;;;;;;;20.97;12.13;;;6.20;91.70;;;;;;21004027;28;20734;-78
2022/12/01 04:55:48;;;;;;;20.97;12.13;;;6.10;91.70;;;;;;21003136;28;20264;-78
2022/12/01 05:06:00;;;;;;;22.30;12.10;;;6.10;91.80;;;;;;21002062;28;20690;-76
2022/12/01 05:16:11;;;;;;;18.53;12.40;;;6.10;91.90;;;;;;21001516;28;20210;-77
2022/12/01 05:26:12;;;;;;;21.40;12.03;;;6.10;92.00;;;;;;20998851;28;20237;-79
2022/12/01 05:36:14;;;;;;;21.80;12.57;;;6.10;92.10;;;;;;20999456;28;20217;-79
2022/12/01 05:46:16;;;;;;;25.27;12.30;;;6.10;92.30;;;;;;20997720;28;20247;-77
2022/12/01 05:56:17;;;;;;;20.47;12.03;;;6.10;92.40;;;;;;20998092;28;20713;-74
2022/12/01 06:06:19;;;;;;;23.67;12.40;;;6.10;92.50;;;;;;20996983;28;20631;-74
2022/12/01 06:16:21;;;;;;;22.13;11.80;;;6.10;92.60;;;;;;20996875;28;20568;-73
2022/12/01 06:26:23;;;;;;;21.90;12.33;;;6.10;92.70;;;;;;20995447;28;20599;-66
2022/12/01 06:36:24;;;;;;;19.53;12.30;;;6.10;92.80;;;;;;20994228;28;20584;-72
2022/12/01 06:46:26;;;;;;;20.30;12.17;;;6.20;92.90;;;;;;20992114;28;20322;-71
2022/12/01 06:56:28;;;;;;;27.67;16.27;;;6.10;92.90;;;;;;20993959;28;20205;-73
2022/12/01 07:06:30;;;;;;;25.80;14.87;;;6.20;93.10;;;;;;20993945;28;20323;-72
2022/12/01 07:16:32;;;;;;;28.53;13.27;;;6.20;93.20;;;;;;20993805;28;20213;-71
2022/12/01 07:26:34;;;;;;;25.20;14.13;;;6.20;93.30;;;;;;20992838;28;20741;-72
2022/12/01 07:36:36;;;;;;;28.67;13.60;;;6.20;93.40;;;;;;20993223;28;20262;-69
2022/12/01 07:46:37;;;;;;;22.43;13.03;;;6.20;93.50;;;;;;20992139;28;20294;-69
2022/12/01 07:56:39;;;;;;;22.57;12.80;;;6.10;93.50;;;;;;21002049;28;20274;-68
2022/12/01 08:06:41;;;;;;;23.67;13.47;;;6.00;93.70;;;;;;21006215;28;20285;-67
2022/12/01 08:16:43;;;;;;;31.87;13.63;;;6.20;94.00;;;;;;21005421;28;20588;-72
2022/12/01 08:26:44;;;;;;;28.20;16.37;;;6.30;93.90;;;;;;21003947;28;20703;-70
2022/12/01 08:36:46;;;;;;;24.63;13.67;;;6.50;94.00;;;;;;21003977;28;20218;-68
2022/12/01 08:46:48;;;;;;;25.03;14.07;;;6.60;93.90;;;;;;21002882;28;20240;-70
2022/12/01 08:56:50;;;;;;;24.07;13.07;;;6.80;94.00;;;;;;21001370;28;20212;-68
2022/12/01 09:06:54;;;;;;;25.87;13.47;;;7.00;93.80;;;;;;21001177;28;20276;-68
2022/12/01 09:16:55;;;;;;;23.27;14.10;;;7.30;93.80;;;;;;20999180;28;20226;-70
2022/12/01 09:26:58;;;;;;;22.17;13.30;;;7.40;93.50;;;;;;20999190;28;20238;-67
2022/12/01 09:39:38;;;;;;;25.30;13.37;;;7.50;93.30;;;;;;20983389;28;20556;-69
2022/12/01 09:49:43;;;;;;;21.73;12.53;;;7.70;93.20;;;;;;20982215;28;20544;-69
2022/12/01 09:59:45;;;;;;;20.53;11.50;;;7.70;92.90;;;;;;20982201;28;20219;-67
2022/12/01 10:10:18;;;;;;;19.63;11.70;;;7.80;92.90;;;;;;20981009;28;20215;-68
2022/12/01 10:20:51;;;;;;;18.93;11.73;;;8.00;92.70;;;;;;20980169;28;20342;-68
2022/12/01 10:31:01;;;;;;;19.60;11.43;;;8.00;92.50;;;;;;20978974;28;20243;-67
2022/12/01 10:41:08;;;;;;;21.37;12.37;;;8.20;92.40;;;;;;20977995;28;20218;-68
2022/12/01 10:51:15;;;;;;;18.40;10.50;;;9.50;92.60;;;;;;20922068;28;20236;-69
2022/12/01 11:01:24;;;;;;;18.67;11.00;;;8.60;91.90;;;;;;20922163;28;20242;-67
2022/12/01 11:11:35;;;;;;;19.03;10.77;;;8.80;91.60;;;;;;20920874;28;20237;-67
2022/12/01 11:21:48;;;;;;;17.53;10.70;;;9.00;91.40;;;;;;20920501;28;20204;-71
2022/12/01 11:31:51;;;;;;;17.13;10.73;;;9.40;91.20;;;;;;20919706;28;20238;-69
2022/12/01 11:41:56;;;;;;;20.07;11.53;;;9.30;90.90;;;;;;20918868;28;20283;-68
2022/12/01 11:52:26;;;;;;;18.57;11.70;;;9.40;90.60;;;;;;20918462;28;20600;-72
2022/12/01 12:02:59;;;;;;;20.33;11.50;;;9.70;90.50;;;;;;20915288;28;20206;-69
2022/12/01 12:13:10;;;;;;;16.90;11.17;;;10.20;89.10;;;;;;20916848;28;20325;-66
2022/12/01 12:23:26;;;;;;;21.67;12.33;;;10.40;87.80;;;;;;20914940;28;20203;-68
2022/12/01 12:34:05;;;;;;;18.00;11.10;;;10.30;87.20;;;;;;20914553;28;20323;-66
2022/12/01 12:44:32;;;;;;;19.27;11.73;;;10.10;86.60;;;;;;20914354;28;20617;-73
2022/12/01 12:54:47;;;;;;;21.27;11.17;;;9.80;87.90;;;;;;20913198;28;20241;-72
2022/12/01 13:04:59;;;;;;;22.37;11.43;;;9.80;88.10;;;;;;20912550;28;20549;-71
2022/12/01 13:15:19;;;;;;;20.53;12.53;;;9.60;88.30;;;;;;20912188;28;20702;-72
2022/12/01 13:25:34;;;;;;;18.50;11.47;;;9.50;88.80;;;;;;20906244;28;20206;-72
2022/12/01 13:35:37;;;;;;;21.10;12.27;;;9.30;89.10;;;;;;20825530;28;20724;-69
2022/12/01 13:45:39;;;;;;;19.77;11.30;;;9.10;89.50;;;;;;20827694;28;20207;-72
2022/12/01 13:55:57;;;;;;;19.50;11.80;;;8.90;89.90;;;;;;20828129;28;20240;-72
2022/12/01 14:06:08;;;;;;;20.90;11.17;;;8.80;90.10;;;;;;20827685;28;20234;-72
2022/12/01 14:16:09;;;;;;;18.00;11.33;;;8.90;90.30;;;;;;20827931;28;20241;-72
2022/12/01 14:26:21;;;;;;;20.47;12.77;;;8.90;90.50;;;;;;20842143;28;20201;-72
2022/12/01 14:36:23;;;;;;;19.33;12.33;;;8.80;90.60;;;;;;20841771;28;20716;-72
2022/12/01 14:46:28;;;;;;;16.80;11.10;;;8.80;90.80;;;;;;20841370;28;20204;-70
2022/12/01 14:56:31;;;;;;;20.80;11.73;;;8.70;91.10;;;;;;20840392;28;20241;-71
2022/12/01 15:06:35;;;;;;;19.93;11.97;;;8.50;91.30;;;;;;20840170;28;20213;-72
2022/12/01 15:16:42;;;;;;;21.57;12.30;;;8.40;91.70;;;;;;20839717;28;20306;-70
2022/12/01 15:26:50;;;;;;;25.43;12.93;;;8.40;92.00;;;;;;20838424;28;20664;-72
2022/12/01 15:36:52;;;;;;;21.53;12.80;;;8.20;92.20;;;;;;20836679;28;20249;-72
2022/12/01 15:46:54;;;;;;;22.27;12.97;;;8.10;92.40;;;;;;20836691;28;20542;-71
2022/12/01 15:56:57;;;;;;;25.07;14.00;;;8.00;92.70;;;;;;20835822;28;20236;-72
2022/12/01 16:15:50;;;;;;;22.97;13.40;;;;;;;;;;21151498;27;20581;-73
2022/12/01 16:25:52;;;;;;;27.33;13.20;;;7.80;93.30;;;;;;21045491;28;20217;-71
2022/12/01 16:35:59;;;;;;;27.13;14.60;;;7.70;93.50;;;;;;21038142;28;20210;-71
2022/12/01 16:46:05;;;;;;;33.73;18.93;;;7.50;93.80;;;;;;20997015;28;20205;-72
2022/12/01 16:56:12;;;;;;;31.27;16.37;;;7.40;94.20;;;;;;20990321;28;20217;-73
2022/12/01 17:06:18;;;;;;;30.97;18.70;;;7.30;94.40;;;;;;21067179;28;20598;-73
2022/12/01 17:16:20;;;;;;;27.57;15.90;;;7.10;94.60;;;;;;21147279;28;20285;-72
2022/12/01 17:26:22;;;;;;;30.73;15.67;;;7.00;95.10;;;;;;21094904;28;20293;-77
2022/12/01 17:37:20;;;;;;;32.57;16.77;;;7.00;95.50;;;;;;21068108;27;20577;-74
2022/12/01 17:47:22;;;;;;;31.93;18.37;;;7.00;95.80;;;;;;21067642;28;20581;-74
2022/12/01 17:57:24;;;;;;;30.27;16.87;;;7.00;95.90;;;;;;21066842;28;20286;-68
2022/12/01 18:07:26;;;;;;;32.83;17.10;;;;;;;;;;20988816;28;20198;-70
2022/12/01 18:17:27;;;;;;;27.23;16.57;;;6.80;96.20;;;;;;20981112;28;20214;-70
2022/12/01 18:27:29;;;;;;;32.43;16.17;;;6.80;96.40;;;;;;20980093;28;20211;-71
2022/12/01 18:37:31;;;;;;;28.07;15.37;;;6.90;96.40;;;;;;21047715;28;20212;-71
2022/12/01 18:47:33;;;;;;;27.37;14.20;;;6.90;96.40;;;;;;21011340;28;20657;-71
2022/12/01 18:57:35;;;;;;;24.93;13.93;;;6.90;96.40;;;;;;21002871;28;20237;-71
2022/12/01 19:07:36;;;;;;;27.80;13.33;;;6.90;96.40;;;;;;20986701;28;20250;-71
2022/12/01 19:17:38;;;;;;;24.27;13.83;;;6.90;96.40;;;;;;20970341;28;20619;-70
2022/12/01 19:27:40;;;;;;;24.73;13.70;;;6.90;96.40;;;;;;21000730;28;20291;-72
2022/12/01 19:37:41;;;;;;;22.47;12.97;;;6.90;96.30;;;;;;20952387;28;20215;-72
2022/12/01 19:47:43;;;;;;;23.47;12.90;;;6.90;96.20;;;;;;20984075;28;20202;-72
2022/12/01 19:57:49;;;;;;;19.63;11.77;;;6.90;96.10;;;;;;20933406;28;20238;-72
2022/12/01 20:07:51;;;;;;;25.73;11.80;;;6.90;96.00;;;;;;20915884;28;20230;-71
2022/12/01 20:17:52;;;;;;;20.60;11.20;;;7.00;95.80;;;;;;20915053;28;20212;-72
2022/12/01 20:27:54;;;;;;;19.97;11.37;;;7.10;95.50;;;;;;20914511;28;20274;-71
2022/12/01 20:37:56;;;;;;;18.63;10.47;;;7.20;95.40;;;;;;20913105;28;20206;-72
2022/12/01 20:47:58;;;;;;;18.30;9.83;;;7.20;95.00;;;;;;20912433;28;20763;-72
2022/12/01 20:58:01;;;;;;;22.03;9.50;;;7.20;94.90;;;;;;20912426;28;20262;-72
2022/12/01 21:08:04;;;;;;;17.43;9.67;;;7.20;94.60;;;;;;20911235;28;20686;-72
2022/12/01 21:18:22;;;;;;;19.67;9.80;;;7.20;94.40;;;;;;20910782;28;20265;-72
2022/12/01 21:28:25;;;;;;;18.37;10.27;;;7.20;94.30;;;;;;20909252;28;20234;-72
2022/12/01 21:38:26;;;;;;;18.77;10.13;;;7.20;94.20;;;;;;20909639;28;20204;-72
